Time;durP1;ratioP1;P1;durP2;ratioP2;P2;SDS_P1;SDS_P2;PMS_P1;PMS_P2;Temp;Humidity;BMP_temperature;BMP_pressure;BME280_temperature;BME280_humidity;BME280_pressure;Samples;Min_cycle;Max_cycle;Signal;HPM_P1;HPM_P2
2022/04/06 00:00:42;;;;;;;0.00;0.00;;;;;;;11.12;69.40;99181.81;7359423;19;20106;-60
2022/04/06 00:03:08;;;;;;;0.00;0.00;;;;;;;11.10;69.48;99177.56;7356390;19;20041;-60
2022/04/06 00:05:33;;;;;;;0.00;0.00;;;;;;;11.12;69.64;99176.59;7355166;19;20106;-62
2022/04/06 00:07:58;;;;;;;0.00;0.00;;;;;;;11.09;69.65;99179.34;7358358;19;20009;-63
2022/04/06 00:10:24;;;;;;;0.00;0.00;;;;;;;11.13;69.18;99183.50;7357729;19;20019;-63
2022/04/06 00:12:50;;;;;;;0.00;0.00;;;;;;;11.12;69.33;99181.81;7359883;19;20137;-62
2022/04/06 00:15:15;;;;;;;0.00;0.00;;;;;;;11.14;68.86;99164.28;7356517;19;20025;-62
2022/04/06 00:17:41;;;;;;;0.00;0.00;;;;;;;11.15;68.77;99160.78;7356524;19;20018;-63
2022/04/06 00:20:07;;;;;;;0.00;0.00;;;;;;;11.15;68.61;99160.78;7359870;19;20077;-63
2022/04/06 00:22:33;;;;;;;0.00;0.00;;;;;;;11.17;68.91;99158.91;7352782;19;20013;-62
2022/04/06 00:24:59;;;;;;;0.00;0.00;;;;;;;11.16;68.41;99152.00;7361617;19;20802;-63
2022/04/06 00:27:24;;;;;;;0.00;0.00;;;;;;;11.16;68.63;99146.78;7353508;19;20006;-63
2022/04/06 00:29:50;;;;;;;0.03;0.03;;;;;;;11.17;68.26;99143.25;7359233;19;20022;-63
2022/04/06 00:32:16;;;;;;;0.00;0.00;;;;;;;11.17;67.95;99122.34;7353762;19;20011;-62
2022/04/06 00:37:25;;;;;;;0.00;0.00;;;;;;;11.21;67.34;99119.59;7361819;19;20048;-62
2022/04/06 00:39:50;;;;;;;0.00;0.00;;;;;;;11.16;67.43;99133.72;7353100;19;20010;-62
2022/04/06 00:42:16;;;;;;;0.00;0.00;;;;;;;11.14;66.91;99119.88;7355354;19;20033;-63
2022/04/06 00:44:41;;;;;;;0.00;0.00;;;;;;;11.15;66.69;99111.13;7357735;19;20021;-63
2022/04/06 00:47:07;;;;;;;0.00;0.00;;;;;;;11.12;66.67;99108.66;7354419;19;20470;-63
2022/04/06 00:49:33;;;;;;;0.00;0.00;;;;;;;11.13;65.99;99107.75;7361423;19;20014;-63
2022/04/06 00:52:03;;;;;;;0.00;0.00;;;;;;;11.12;66.21;99108.66;7353866;19;20539;-63
2022/04/06 00:54:30;;;;;;;0.00;0.00;;;;;;;11.10;66.75;99104.44;7355697;19;20802;-63
2022/04/06 00:56:56;;;;;;;0.00;0.00;;;;;;;11.07;66.90;99115.91;7357985;19;20044;-62
2022/04/06 00:59:22;;;;;;;0.00;0.00;;;;;;;11.06;67.20;99101.16;7354789;19;20520;-62
2022/04/06 01:01:49;;;;;;;0.00;0.00;;;;;;;10.90;67.10;99082.78;7349055;19;20010;-63
2022/04/06 01:04:16;;;;;;;0.00;0.00;;;;;;;10.99;67.01;99086.69;7358473;19;20464;-63
2022/04/06 01:06:42;;;;;;;0.00;0.00;;;;;;;10.95;66.97;99069.50;7356936;19;20025;-61
2022/04/06 01:09:08;;;;;;;0.00;0.00;;;;;;;10.83;66.99;99075.31;7356437;19;20043;-63
2022/04/06 01:11:34;;;;;;;0.00;0.00;;;;;;;10.90;67.19;99076.72;7358774;19;20022;-62
2022/04/06 01:14:00;;;;;;;0.00;0.00;;;;;;;10.88;66.67;99070.72;7344210;19;20064;-63
2022/04/06 01:16:26;;;;;;;0.00;0.00;;;;;;;10.83;66.89;99060.50;7356624;19;20014;-63
2022/04/06 01:18:51;;;;;;;0.00;0.00;;;;;;;10.82;66.24;99071.03;7359021;19;20006;-63
2022/04/06 01:21:17;;;;;;;0.00;0.00;;;;;;;10.81;66.05;99067.56;7357624;19;20036;-63
2022/04/06 01:23:43;;;;;;;0.00;0.00;;;;;;;10.77;66.00;99055.59;7354590;19;20006;-62
2022/04/06 01:26:10;;;;;;;0.00;0.00;;;;;;;10.77;65.72;99062.56;7351566;19;20007;-62
2022/04/06 01:28:37;;;;;;;0.00;0.00;;;;;;;10.74;65.53;99054.88;7357509;19;20030;-61
2022/04/06 01:31:03;;;;;;;0.00;0.00;;;;;;;10.72;65.39;99056.75;7352303;19;20071;-62
2022/04/06 01:33:29;;;;;;;0.00;0.00;;;;;;;10.70;65.68;99072.50;7354470;19;20035;-63
2022/04/06 01:35:56;;;;;;;0.00;0.00;;;;;;;10.60;65.21;99061.66;7353724;19;20022;-63
2022/04/06 01:38:21;;;;;;;0.00;0.00;;;;;;;10.63;64.64;99058.88;7356467;19;20034;-62
2022/04/06 01:40:46;;;;;;;0.00;0.00;;;;;;;10.61;64.98;99049.44;7356275;19;20790;-63
2022/04/06 01:43:12;;;;;;;0.00;0.00;;;;;;;10.60;64.81;99063.41;7353297;19;20034;-61
2022/04/06 01:45:38;;;;;;;0.00;0.00;;;;;;;10.55;64.90;99058.41;7357559;19;20013;-63
2022/04/06 01:48:04;;;;;;;0.00;0.00;;;;;;;10.52;65.00;99070.75;7356134;19;20022;-61
2022/04/06 01:53:13;;;;;;;0.00;0.00;;;;;;;10.48;65.18;99062.22;7355053;19;20461;-62
2022/04/06 01:55:38;;;;;;;0.00;0.00;;;;;;;10.45;65.62;99054.56;7356963;19;20002;-62
2022/04/06 01:58:04;;;;;;;0.00;0.00;;;;;;;10.46;65.94;99051.03;7351123;19;20010;-62
2022/04/06 02:00:29;;;;;;;0.00;0.00;;;;;;;10.45;67.50;99056.34;7350518;19;20010;-63
2022/04/06 02:02:55;;;;;;;0.00;0.00;;;;;;;10.34;67.49;99028.13;7353763;19;20596;-62
2022/04/06 02:05:21;;;;;;;0.00;0.00;;;;;;;10.38;68.05;99067.03;7352316;19;20070;-64
2022/04/06 02:07:47;;;;;;;0.00;0.00;;;;;;;10.38;68.44;99047.94;7353871;19;20033;-65
2022/04/06 02:10:14;;;;;;;0.00;0.00;;;;;;;10.35;69.45;99042.88;7357740;19;20010;-64
2022/04/06 02:12:40;;;;;;;0.00;0.00;;;;;;;10.28;70.07;99051.91;7345127;19;20010;-64
2022/04/06 02:15:10;;;;;;;0.00;0.00;;;;;;;10.08;69.36;99026.72;7354277;19;20073;-64
2022/04/06 02:17:36;;;;;;;0.00;0.00;;;;;;;10.09;70.29;99051.94;7356629;19;20002;-63
2022/04/06 02:20:01;;;;;;;0.00;0.00;;;;;;;10.00;70.72;99061.00;7338400;19;20501;-64
2022/04/06 02:22:26;;;;;;;0.00;0.00;;;;;;;9.90;70.77;99051.09;7356005;19;20018;-64
2022/04/06 02:24:52;;;;;;;0.00;0.00;;;;;;;9.74;71.45;99032.69;7337391;19;20024;-63
2022/04/06 02:27:17;;;;;;;0.00;0.00;;;;;;;9.61;71.11;99030.63;7355702;19;20559;-64
2022/04/06 02:29:43;;;;;;;0.00;0.00;;;;;;;9.66;71.81;99033.03;7347899;19;20018;-64
2022/04/06 02:32:09;;;;;;;0.00;0.00;;;;;;;9.63;72.24;99038.41;7355020;19;20074;-64
2022/04/06 02:34:35;;;;;;;0.00;0.00;;;;;;;9.55;72.96;99032.69;7356242;19;20086;-64
2022/04/06 02:37:01;;;;;;;0.00;0.00;;;;;;;9.48;72.61;99032.13;7354369;19;20010;-63
2022/04/06 02:39:26;;;;;;;0.00;0.00;;;;;;;9.43;72.54;99023.66;7341261;19;20439;-63
2022/04/06 02:41:53;;;;;;;0.00;0.00;;;;;;;9.38;72.79;99017.81;7348244;19;20007;-63
2022/04/06 02:44:18;;;;;;;0.00;0.00;;;;;;;9.30;72.66;99023.34;7350926;19;20002;-64
2022/04/06 02:46:45;;;;;;;0.00;0.00;;;;;;;9.27;73.03;99015.66;7355160;19;20041;-63
2022/04/06 02:49:10;;;;;;;0.00;0.00;;;;;;;9.22;73.26;99017.63;7342620;19;20022;-62
2022/04/06 02:51:36;;;;;;;0.00;0.00;;;;;;;9.18;73.18;99005.69;7354505;19;20613;-64
2022/04/06 02:54:01;;;;;;;0.00;0.00;;;;;;;9.14;73.57;99003.28;7343409;19;20580;-64
2022/04/06 02:56:28;;;;;;;0.00;0.00;;;;;;;9.01;73.66;98985.56;7353830;19;20011;-64
2022/04/06 02:58:53;;;;;;;0.00;0.00;;;;;;;9.09;73.90;99001.72;7347907;19;20027;-61
2022/04/06 03:01:19;;;;;;;0.00;0.00;;;;;;;9.05;73.89;98994.94;7355377;19;20007;-64
2022/04/06 03:03:44;;;;;;;0.00;0.00;;;;;;;9.02;73.71;98989.88;7347081;19;20031;-62
2022/04/06 03:06:10;;;;;;;0.00;0.00;;;;;;;8.99;73.88;98987.41;7346210;19;20751;-64
2022/04/06 03:08:35;;;;;;;0.00;0.00;;;;;;;8.99;74.27;99010.84;7354304;19;20025;-64
2022/04/06 03:11:01;;;;;;;0.00;0.00;;;;;;;8.97;74.20;98978.81;7347809;19;20019;-64
2022/04/06 03:13:26;;;;;;;0.00;0.00;;;;;;;8.95;74.22;98978.03;7338639;19;20014;-64
2022/04/06 03:15:51;;;;;;;0.00;0.00;;;;;;;8.86;74.51;98960.19;7356220;19;20011;-63
2022/04/06 03:18:17;;;;;;;0.00;0.00;;;;;;;8.92;74.25;98969.50;7360205;19;20550;-64
2022/04/06 03:20:42;;;;;;;0.00;0.00;;;;;;;8.88;74.69;98966.22;7349348;19;20006;-64
2022/04/06 03:23:08;;;;;;;0.00;0.00;;;;;;;8.74;74.09;98953.78;7346144;19;20010;-65
2022/04/06 03:25:34;;;;;;;0.00;0.00;;;;;;;8.73;74.61;98946.06;7352669;19;20074;-64
2022/04/06 03:28:01;;;;;;;0.00;0.00;;;;;;;8.84;74.31;98970.69;7353107;19;20667;-64
2022/04/06 03:30:26;;;;;;;0.00;0.00;;;;;;;8.83;74.47;98968.16;7346888;19;20022;-64
2022/04/06 03:32:51;;;;;;;0.00;0.00;;;;;;;8.80;74.48;98957.88;7358268;19;20034;-64
2022/04/06 03:35:17;;;;;;;0.00;0.00;;;;;;;8.78;74.19;98959.72;7355684;19;20061;-65
2022/04/06 03:37:43;;;;;;;0.00;0.00;;;;;;;8.72;74.08;98936.56;7360728;19;20011;-65
2022/04/06 03:40:09;;;;;;;0.00;0.00;;;;;;;8.76;74.49;98940.69;7362822;19;20052;-63
2022/04/06 03:42:34;;;;;;;0.00;0.00;;;;;;;8.75;74.47;98933.81;7364124;19;20011;-64
2022/04/06 03:45:00;;;;;;;0.00;0.00;;;;;;;8.75;75.00;98928.59;7363241;19;20055;-64
2022/04/06 03:47:33;;;;;;;0.00;0.00;;;;;;;8.76;75.04;98927.69;7364273;19;20014;-64
2022/04/06 03:49:59;;;;;;;0.00;0.00;;;;;;;8.76;74.80;98927.69;7365241;19;20477;-64
2022/04/06 03:52:25;;;;;;;0.00;0.00;;;;;;;8.73;74.66;98904.41;7359380;19;20022;-62
2022/04/06 03:54:51;;;;;;;0.00;0.00;;;;;;;8.78;75.00;98902.44;7358027;19;20668;-64
2022/04/06 03:57:17;;;;;;;0.00;0.00;;;;;;;8.82;75.07;98914.44;7364859;19;20017;-64
2022/04/06 03:59:42;;;;;;;0.00;0.00;;;;;;;8.83;74.73;98905.69;7361422;19;20018;-64
2022/04/06 04:02:07;;;;;;;0.00;0.00;;;;;;;8.86;75.12;98905.53;7364939;19;20023;-62
2022/04/06 04:04:33;;;;;;;0.00;0.00;;;;;;;8.76;74.80;98867.81;7363100;19;20010;-65
2022/04/06 04:06:58;;;;;;;0.00;0.00;;;;;;;8.89;74.68;98889.81;7361965;19;20038;-64
2022/04/06 04:09:24;;;;;;;0.00;0.00;;;;;;;8.90;74.66;98886.28;7362633;19;20011;-64
2022/04/06 04:11:49;;;;;;;0.00;0.00;;;;;;;8.92;74.43;98884.47;7362351;19;20018;-62
2022/04/06 04:14:15;;;;;;;0.00;0.00;;;;;;;8.93;74.89;98877.50;7361326;19;20009;-64
2022/04/06 04:16:40;;;;;;;0.00;0.00;;;;;;;8.93;74.65;98870.53;7363274;19;20643;-65
2022/04/06 04:19:06;;;;;;;0.00;0.00;;;;;;;8.92;74.73;98855.84;7347719;19;20025;-65
2022/04/06 04:21:32;;;;;;;0.00;0.00;;;;;;;8.95;74.77;98858.28;7362557;19;20025;-62
2022/04/06 04:24:01;;;;;;;0.00;0.00;;;;;;;8.96;74.49;98857.34;7362867;19;20070;-64
2022/04/06 04:26:28;;;;;;;0.00;0.00;;;;;;;8.95;74.58;98850.47;7358785;19;20290;-64
2022/04/06 04:28:54;;;;;;;0.00;0.00;;;;;;;8.95;74.47;98845.25;7362759;19;20069;-64
2022/04/06 04:31:20;;;;;;;0.00;0.00;;;;;;;8.87;74.58;98836.97;7362565;19;20014;-64
2022/04/06 04:33:45;;;;;;;0.10;0.10;;;;;;;8.80;73.91;98835.56;7364076;19;20420;-63
2022/04/06 04:36:10;;;;;;;0.05;0.05;;;;;;;8.91;73.95;98840.25;7360229;19;20987;-63
2022/04/06 04:38:39;;;;;;;0.00;0.00;;;;;;;8.91;73.86;98841.09;7359014;19;20017;-64
2022/04/06 04:41:08;;;;;;;0.00;0.00;;;;;;;8.89;74.35;98839.50;7362205;19;20119;-63
2022/04/06 04:43:35;;;;;;;0.00;0.00;;;;;;;8.88;74.04;98833.47;7364629;19;20014;-64
2022/04/06 04:46:01;;;;;;;0.00;0.00;;;;;;;8.86;73.92;98835.25;7356844;19;20063;-63
2022/04/06 04:48:27;;;;;;;0.00;0.00;;;;;;;8.83;74.04;98832.81;7357359;19;20958;-65
2022/04/06 04:50:52;;;;;;;0.00;0.00;;;;;;;8.79;74.07;98837.31;7356947;19;20010;-63
2022/04/06 04:53:18;;;;;;;0.00;0.00;;;;;;;8.82;73.89;98825.94;7360491;19;20010;-64
2022/04/06 04:55:43;;;;;;;0.00;0.00;;;;;;;8.69;73.96;98803.97;7354152;19;20023;-64
2022/04/06 04:58:09;;;;;;;0.00;0.00;;;;;;;8.80;74.18;98823.38;7355990;19;21341;-64
2022/04/06 05:00:34;;;;;;;0.00;0.00;;;;;;;8.70;74.24;98800.44;7360090;19;20077;-64
2022/04/06 05:03:00;;;;;;;0.00;0.00;;;;;;;8.74;74.36;98802.00;7360206;19;20018;-64
2022/04/06 05:05:25;;;;;;;0.05;0.05;;;;;;;8.79;74.61;98807.84;7355812;19;20728;-63
2022/04/06 05:07:51;;;;;;;0.00;0.00;;;;;;;8.80;74.37;98801.72;7360767;19;20007;-64
2022/04/06 05:10:16;;;;;;;0.00;0.00;;;;;;;8.82;74.22;98815.53;7359871;19;20034;-64
2022/04/06 05:12:43;;;;;;;0.00;0.00;;;;;;;8.82;74.24;98805.94;7355463;19;20021;-64
2022/04/06 05:15:10;;;;;;;0.00;0.00;;;;;;;8.83;74.19;98806.78;7363464;19;20010;-64
2022/04/06 05:17:35;;;;;;;0.10;0.10;;;;;;;8.87;74.24;98817.88;7354116;19;20070;-62
2022/04/06 05:20:04;;;;;;;0.00;0.00;;;;;;;8.86;74.43;98801.44;7361979;19;20018;-64
2022/04/06 05:22:29;;;;;;;0.00;0.00;;;;;;;8.92;74.12;98806.38;7361682;19;20461;-65
2022/04/06 05:24:55;;;;;;;0.00;0.00;;;;;;;8.95;74.52;98810.59;7359022;19;20078;-63
2022/04/06 05:27:20;;;;;;;0.00;0.00;;;;;;;8.99;74.34;98802.56;7360555;19;20103;-62
2022/04/06 05:29:46;;;;;;;0.10;0.10;;;;;;;8.99;74.35;98799.97;7360252;19;20097;-62
2022/04/06 05:32:12;;;;;;;0.10;0.10;;;;;;;9.00;74.10;98801.63;7361054;19;20010;-63
2022/04/06 05:34:37;;;;;;;0.00;0.00;;;;;;;9.01;74.46;98805.94;7361395;19;20366;-63
2022/04/06 05:37:03;;;;;;;0.10;0.10;;;;;;;8.99;74.24;98792.16;7357855;19;20006;-64
2022/04/06 05:39:28;;;;;;;0.10;0.10;;;;;;;9.02;74.07;98785.94;7355424;19;20027;-64
2022/04/06 05:41:54;;;;;;;0.00;0.00;;;;;;;9.02;73.83;98776.41;7360856;19;20371;-64
2022/04/06 05:44:19;;;;;;;0.00;0.00;;;;;;;9.00;74.03;98787.78;7353623;19;20021;-64
2022/04/06 05:46:45;;;;;;;0.00;0.00;;;;;;;8.95;74.23;98774.97;7361330;19;20010;-64
2022/04/06 05:49:10;;;;;;;0.03;0.03;;;;;;;8.91;74.42;98786.44;7360424;19;20010;-65
2022/04/06 05:51:36;;;;;;;0.00;0.00;;;;;;;8.92;74.25;98782.06;7348806;19;20557;-65
2022/04/06 05:54:02;;;;;;;0.00;0.00;;;;;;;8.94;73.92;98772.47;7355681;19;20014;-64
2022/04/06 05:56:29;;;;;;;0.00;0.00;;;;;;;8.91;73.75;98775.19;7361841;19;20560;-63
2022/04/06 05:58:54;;;;;;;0.00;0.00;;;;;;;8.85;73.73;98768.50;7351506;19;20010;-63
2022/04/06 06:01:19;;;;;;;0.00;0.00;;;;;;;8.83;73.60;98762.53;7350879;19;20023;-64
2022/04/06 06:03:45;;;;;;;0.03;0.03;;;;;;;8.84;73.45;98774.66;7360455;19;20099;-64
2022/04/06 06:06:10;;;;;;;0.10;0.10;;;;;;;8.88;73.42;98783.16;7341221;19;20070;-64
2022/04/06 06:08:36;;;;;;;0.00;0.00;;;;;;;8.83;73.96;98766.00;7363123;19;20010;-63
2022/04/06 06:11:03;;;;;;;0.10;0.10;;;;;;;8.83;74.11;98770.34;7358106;19;19999;-64
2022/04/06 06:13:29;;;;;;;0.00;0.00;;;;;;;8.83;74.19;98767.75;7361388;19;20013;-64
2022/04/06 06:15:55;;;;;;;0.00;0.00;;;;;;;8.76;73.90;98753.31;7358875;19;20002;-64
2022/04/06 06:18:20;;;;;;;0.00;0.00;;;;;;;8.81;73.66;98751.34;7360614;19;20002;-64
2022/04/06 06:20:46;;;;;;;0.00;0.00;;;;;;;8.80;74.08;98766.13;7359828;19;21103;-64
2022/04/06 06:23:11;;;;;;;0.05;0.05;;;;;;;8.85;73.59;98768.50;7358111;19;20041;-63
2022/04/06 06:25:37;;;;;;;0.00;0.00;;;;;;;8.86;74.15;98780.59;7359065;19;20106;-64
2022/04/06 06:28:02;;;;;;;0.00;0.00;;;;;;;8.89;73.54;98780.47;7354795;19;20835;-64
2022/04/06 06:30:28;;;;;;;0.03;0.03;;;;;;;8.88;73.78;98763.19;7354564;19;20592;-63
2022/04/06 06:32:54;;;;;;;0.00;0.00;;;;;;;8.89;73.52;98762.25;7357862;19;20007;-63
2022/04/06 06:35:21;;;;;;;0.00;0.00;;;;;;;8.89;73.42;98759.66;7353762;19;20010;-63
2022/04/06 06:37:48;;;;;;;0.00;0.00;;;;;;;8.79;73.80;98737.56;7353871;19;20010;-64
2022/04/06 06:40:14;;;;;;;0.00;0.00;;;;;;;8.92;73.76;98738.69;7342794;19;20006;-64
2022/04/06 06:42:40;;;;;;;0.00;0.00;;;;;;;8.80;73.92;98718.44;7352431;19;20508;-63
2022/04/06 06:45:05;;;;;;;0.00;0.00;;;;;;;8.92;74.00;98727.41;7343757;19;20002;-64
2022/04/06 06:47:31;;;;;;;0.00;0.00;;;;;;;8.92;73.21;98720.47;7352803;19;20018;-64
2022/04/06 06:49:56;;;;;;;0.10;0.10;;;;;;;8.94;73.50;98734.25;7346190;19;20460;-63
2022/04/06 06:52:21;;;;;;;0.00;0.00;;;;;;;8.90;73.32;98719.69;7354722;19;20018;-64
2022/04/06 06:54:47;;;;;;;0.00;0.00;;;;;;;8.92;73.18;98719.59;7356289;19;20625;-64
2022/04/06 06:57:12;;;;;;;0.00;0.00;;;;;;;8.90;73.41;98734.47;7353664;19;20026;-64
2022/04/06 06:59:38;;;;;;;0.00;0.00;;;;;;;8.82;73.79;98711.41;7349453;19;20027;-63
2022/04/06 07:02:04;;;;;;;0.10;0.10;;;;;;;8.87;73.89;98712.03;7357075;19;20154;-64
2022/04/06 07:04:29;;;;;;;0.05;0.05;;;;;;;8.86;73.84;98720.75;7345444;19;20026;-62
2022/04/06 07:06:54;;;;;;;0.00;0.00;;;;;;;8.84;73.27;98714.78;7353847;19;20035;-62
2022/04/06 07:09:20;;;;;;;0.00;0.00;;;;;;;8.89;73.85;98711.97;7351825;19;20120;-64
2022/04/06 07:11:45;;;;;;;0.00;0.00;;;;;;;8.90;73.97;98713.63;7354250;19;20016;-63
2022/04/06 07:14:11;;;;;;;0.00;0.00;;;;;;;8.91;74.15;98691.91;7358215;19;20010;-63
2022/04/06 07:16:36;;;;;;;0.00;0.00;;;;;;;8.94;74.16;98695.19;7355318;19;20018;-64
2022/04/06 07:19:02;;;;;;;0.00;0.00;;;;;;;8.96;73.84;98692.53;7360960;19;20093;-64
2022/04/06 07:21:27;;;;;;;0.10;0.10;;;;;;;8.93;74.35;98693.53;7358850;19;20026;-64
2022/04/06 07:23:54;;;;;;;0.00;0.00;;;;;;;8.90;74.50;98679.81;7341950;19;20015;-64
2022/04/06 07:26:19;;;;;;;0.00;0.00;;;;;;;9.05;73.69;98698.13;7340425;19;20034;-64
2022/04/06 07:28:45;;;;;;;0.00;0.00;;;;;;;9.00;73.71;98679.28;7363747;19;20022;-63
2022/04/06 07:31:14;;;;;;;0.00;0.00;;;;;;;9.08;73.81;98687.56;7358234;19;20040;-63
2022/04/06 07:33:40;;;;;;;0.00;0.00;;;;;;;9.16;73.89;98689.78;7362157;19;20014;-62
2022/04/06 07:36:06;;;;;;;0.00;0.00;;;;;;;9.19;73.41;98688.81;7355375;19;20068;-64
2022/04/06 07:38:31;;;;;;;0.00;0.00;;;;;;;9.22;73.67;98679.06;7360175;19;20010;-64
2022/04/06 07:40:57;;;;;;;0.00;0.00;;;;;;;9.26;73.50;98690.19;7361458;19;20026;-64
2022/04/06 07:43:23;;;;;;;0.00;0.00;;;;;;;9.28;73.26;98693.56;7351744;19;20015;-64
2022/04/06 07:45:48;;;;;;;0.00;0.00;;;;;;;9.25;73.31;98670.28;7359001;19;20147;-63
2022/04/06 07:48:14;;;;;;;0.00;0.00;;;;;;;9.34;73.47;98660.25;7360990;19;20007;-62
2022/04/06 07:50:39;;;;;;;0.00;0.00;;;;;;;9.38;73.11;98660.06;7351440;19;20026;-63
2022/04/06 07:53:05;;;;;;;0.00;0.00;;;;;;;9.39;72.82;98660.00;7358567;19;20007;-64
2022/04/06 07:55:30;;;;;;;0.00;0.00;;;;;;;9.41;73.00;98663.38;7358333;19;20034;-63
2022/04/06 07:57:56;;;;;;;0.00;0.00;;;;;;;9.41;72.85;98652.94;7360267;19;20011;-64
2022/04/06 08:00:21;;;;;;;0.00;0.00;;;;;;;9.39;73.25;98638.34;7360497;19;20050;-64
2022/04/06 08:02:48;;;;;;;0.00;0.00;;;;;;;9.40;73.05;98640.84;7345584;19;20023;-63
2022/04/06 08:05:14;;;;;;;0.00;0.00;;;;;;;9.45;72.57;98633.63;7354341;19;20603;-63
2022/04/06 08:07:43;;;;;;;0.00;0.00;;;;;;;9.42;73.19;98633.78;7356139;19;20025;-63
2022/04/06 08:10:13;;;;;;;0.00;0.00;;;;;;;9.49;72.68;98634.34;7357702;19;20034;-60
2022/04/06 08:12:39;;;;;;;0.03;0.03;;;;;;;9.52;72.61;98628.94;7358092;19;20022;-63
2022/04/06 08:15:06;;;;;;;0.10;0.10;;;;;;;9.52;72.69;98624.56;7358992;19;20111;-62
2022/04/06 08:17:33;;;;;;;0.00;0.00;;;;;;;9.56;72.99;98626.09;7362132;19;20712;-61
2022/04/06 08:19:58;;;;;;;0.00;0.00;;;;;;;9.56;73.22;98633.94;7361596;19;20633;-63
2022/04/06 08:22:23;;;;;;;0.00;0.00;;;;;;;9.64;72.54;98622.28;7359169;19;20030;-64
2022/04/06 08:24:49;;;;;;;0.00;0.00;;;;;;;9.67;72.76;98622.09;7351317;19;20013;-63
2022/04/06 08:27:15;;;;;;;0.00;0.00;;;;;;;9.69;72.60;98609.84;7363542;19;20010;-63
2022/04/06 08:29:40;;;;;;;0.00;0.00;;;;;;;9.71;72.73;98597.56;7356104;19;20021;-63
2022/04/06 08:32:06;;;;;;;0.00;0.00;;;;;;;9.76;72.19;98604.22;7361042;19;20010;-63
2022/04/06 08:34:31;;;;;;;0.00;0.00;;;;;;;9.68;72.33;98574.25;7362421;19;20015;-63
2022/04/06 08:36:57;;;;;;;0.00;0.00;;;;;;;9.79;72.45;98579.78;7358176;19;20025;-64
2022/04/06 08:39:22;;;;;;;0.00;0.00;;;;;;;9.89;72.34;98578.34;7363143;19;20030;-63
2022/04/06 08:41:48;;;;;;;0.00;0.00;;;;;;;10.00;72.81;98578.59;7356899;19;20072;-63
2022/04/06 08:44:13;;;;;;;0.00;0.00;;;;;;;10.11;72.57;98581.47;7363887;19;20022;-63
2022/04/06 08:46:40;;;;;;;0.00;0.00;;;;;;;10.29;72.67;98579.66;7358035;19;20678;-63
2022/04/06 08:49:06;;;;;;;0.00;0.00;;;;;;;10.55;72.95;98595.63;7352957;19;20015;-61
2022/04/06 08:51:34;;;;;;;0.00;0.00;;;;;;;10.71;72.19;98579.94;7353856;19;20015;-65
2022/04/06 08:53:59;;;;;;;0.00;0.00;;;;;;;10.67;71.90;98552.31;7359162;19;20042;-65
2022/04/06 08:56:25;;;;;;;0.00;0.00;;;;;;;10.77;71.95;98569.13;7358315;19;20010;-64
2022/04/06 08:58:50;;;;;;;0.05;0.05;;;;;;;10.74;71.38;98556.25;7353418;19;20014;-64
2022/04/06 09:01:16;;;;;;;0.00;0.00;;;;;;;10.76;71.79;98546.56;7361636;19;20038;-63
2022/04/06 09:03:41;;;;;;;0.00;0.00;;;;;;;10.82;71.92;98546.22;7360772;19;20031;-64
2022/04/06 09:06:09;;;;;;;0.00;0.00;;;;;;;10.97;72.52;98550.53;7353208;19;20010;-64
2022/04/06 09:08:39;;;;;;;;;;;;;;;11.19;71.59;98539.66;7361120;19;20077;-64
2022/04/06 09:11:18;;;;;;;0.00;0.00;;;;;;;11.32;71.66;98534.56;7359496;19;19950;-64
2022/04/06 09:13:46;;;;;;;0.00;0.00;;;;;;;11.43;71.39;98526.91;7360584;19;20006;-64
2022/04/06 09:16:13;;;;;;;0.00;0.00;;;;;;;11.53;70.58;98527.19;7355192;19;20014;-63
2022/04/06 09:18:43;;;;;;;0.00;0.00;;;;;;;11.66;71.21;98531.56;7361407;19;20022;-64
2022/04/06 09:21:10;;;;;;;0.00;0.00;;;;;;;11.84;70.46;98523.53;7359883;19;20027;-63
2022/04/06 09:23:36;;;;;;;0.00;0.00;;;;;;;12.00;69.99;98521.63;7357046;19;20026;-63
2022/04/06 09:26:06;;;;;;;0.03;0.03;;;;;;;11.92;69.84;98495.13;7361428;19;20087;-64
2022/04/06 09:28:32;;;;;;;0.00;0.00;;;;;;;12.13;69.43;98504.22;7357832;19;20017;-64
2022/04/06 09:30:58;;;;;;;0.00;0.00;;;;;;;12.20;69.73;98499.44;7357630;19;20508;-62
2022/04/06 09:33:28;;;;;;;0.00;0.00;;;;;;;12.32;69.80;98495.19;7356859;19;20018;-63
2022/04/06 09:35:55;;;;;;;0.00;0.00;;;;;;;12.43;69.46;98490.94;7360207;19;20634;-64
2022/04/06 09:38:25;;;;;;;0.00;0.00;;;;;;;12.59;69.38;98497.78;7354613;19;20019;-63
2022/04/06 09:41:14;;;;;;;0.00;0.00;;;;;;;12.75;69.04;98492.34;7357068;19;20039;-62
2022/04/06 09:43:40;;;;;;;0.00;0.00;;;;;;;12.64;68.32;98475.56;7359730;19;20010;-64
2022/04/06 09:49:24;;;;;;;0.00;0.00;;;;;;;12.83;68.36;98484.84;7252327;19;2005771;-63
2022/04/06 09:51:51;;;;;;;0.00;0.00;;;;;;;12.93;67.67;98475.41;7356784;19;20002;-63
2022/04/06 09:54:17;;;;;;;0.00;0.00;;;;;;;12.93;66.11;98455.28;7360042;19;20026;-63
2022/04/06 09:56:44;;;;;;;0.00;0.00;;;;;;;13.08;65.82;98490.09;7360580;19;20015;-60
2022/04/06 09:59:12;;;;;;;0.00;0.00;;;;;;;13.10;66.27;98476.88;7357151;19;20026;-63
2022/04/06 10:01:41;;;;;;;0.00;0.00;;;;;;;13.15;65.58;98465.13;7362513;19;20400;-63
2022/04/06 10:04:10;;;;;;;0.00;0.00;;;;;;;13.19;65.80;98463.97;7360019;19;20081;-63
2022/04/06 10:06:37;;;;;;;0.00;0.00;;;;;;;13.08;65.07;98450.78;7354188;19;20030;-64
2022/04/06 10:09:05;;;;;;;0.00;0.00;;;;;;;13.13;64.31;98461.78;7358667;19;20013;-63
2022/04/06 10:11:33;;;;;;;0.00;0.00;;;;;;;13.04;64.86;98470.28;7361006;19;20014;-63
2022/04/06 10:14:00;;;;;;;0.00;0.00;;;;;;;12.93;64.81;98459.69;7358202;19;20020;-63
2022/04/06 10:16:26;;;;;;;0.10;0.10;;;;;;;12.90;66.05;98463.34;7357922;19;20014;-63
2022/04/06 10:18:52;;;;;;;0.00;0.00;;;;;;;12.99;66.42;98448.78;7355710;19;20031;-63
2022/04/06 10:21:43;;;;;;;0.00;0.00;;;;;;;13.29;67.51;98439.78;7349046;19;20002;-63
2022/04/06 10:25:05;;;;;;;0.00;0.00;;;;;;;13.72;68.51;98446.28;7257173;19;2004296;-62
2022/04/06 10:27:51;;;;;;;0.00;0.00;;;;;;;14.00;64.09;98431.19;7143076;19;2004879;-62
2022/04/06 10:30:22;;;;;;;0.10;0.10;;;;;;;14.12;63.92;98446.03;7353563;19;20142;-63
2022/04/06 10:32:49;;;;;;;0.00;0.00;;;;;;;14.10;62.68;98436.59;7355181;19;20002;-63
2022/04/06 10:35:36;;;;;;;0.00;0.00;;;;;;;14.05;62.69;98439.56;7357998;19;20881;-63
2022/04/06 10:38:05;;;;;;;0.00;0.00;;;;;;;13.94;61.26;98419.34;7346804;19;20406;-63
2022/04/06 10:40:42;;;;;;;0.00;0.00;;;;;;;13.83;62.16;98419.28;7349782;19;20002;-63
2022/04/06 10:43:27;;;;;;;;;;;;;;;13.79;62.49;98419.59;7334049;19;20483;-62
2022/04/06 10:45:55;;;;;;;0.00;0.00;;;;;;;13.63;61.10;98412.84;7361904;19;20331;-63
2022/04/06 10:48:20;;;;;;;0.00;0.00;;;;;;;13.55;61.35;98415.19;7353044;19;20011;-62
2022/04/06 10:50:48;;;;;;;0.00;0.00;;;;;;;13.47;62.08;98405.22;7356593;19;20011;-63
2022/04/06 10:53:22;;;;;;;;;;;;;;;13.55;62.13;98403.88;7364436;19;20021;-64
2022/04/06 10:56:16;;;;;;;0.00;0.00;;;;;;;13.55;61.68;98394.22;7362569;19;20578;-63
2022/04/06 10:58:53;;;;;;;0.10;0.10;;;;;;;13.60;60.56;98399.97;7262418;19;2004626;-63
2022/04/06 11:01:26;;;;;;;0.00;0.00;;;;;;;13.55;61.03;98388.13;7362704;19;20014;-63
2022/04/06 11:04:05;;;;;;;0.00;0.00;;;;;;;13.74;61.38;98426.03;7364884;19;20014;-63
2022/04/06 11:06:49;;;;;;;0.00;0.00;;;;;;;13.70;60.92;98427.19;7359553;19;20450;-62
2022/04/06 11:12:23;;;;;;;0.00;0.00;;;;;;;13.31;61.68;98432.66;7262515;19;2004581;-65
2022/04/06 11:14:57;;;;;;;0.00;0.00;;;;;;;13.03;62.03;98416.19;7358698;19;20010;-64
2022/04/06 11:17:33;;;;;;;0.00;0.00;;;;;;;12.78;63.67;98421.44;7357145;19;20018;-64
2022/04/06 11:19:59;;;;;;;0.05;0.05;;;;;;;12.52;67.47;98390.00;7363477;19;20513;-63
2022/04/06 11:22:25;;;;;;;0.00;0.00;;;;;;;12.77;68.20;98402.25;7360634;19;20030;-63
2022/04/06 11:24:51;;;;;;;0.00;0.00;;;;;;;13.10;68.66;98403.50;7361106;19;20499;-63
2022/04/06 11:27:28;;;;;;;0.00;0.00;;;;;;;13.60;67.85;98392.09;7356201;19;20023;-64
2022/04/06 11:30:00;;;;;;;0.00;0.00;;;;;;;14.05;67.86;98379.19;7363075;19;20026;-64
2022/04/06 11:32:25;;;;;;;0.00;0.00;;;;;;;14.43;67.79;98392.06;7354706;19;20034;-64
2022/04/06 11:34:57;;;;;;;0.00;0.00;;;;;;;14.92;65.64;98363.88;7364047;19;20023;-63
2022/04/06 11:37:22;;;;;;;0.00;0.00;;;;;;;15.32;64.81;98357.16;7356381;19;20018;-63
2022/04/06 11:39:48;;;;;;;0.00;0.00;;;;;;;15.74;63.14;98344.16;7357108;19;20029;-63
2022/04/06 11:42:19;;;;;;;0.00;0.00;;;;;;;16.28;63.51;98352.91;7363574;19;21249;-63
2022/04/06 11:44:44;;;;;;;0.00;0.00;;;;;;;16.58;59.69;98344.22;7361882;19;20022;-64
2022/04/06 11:47:10;;;;;;;0.03;0.03;;;;;;;16.92;59.15;98331.63;7360679;19;20011;-64
2022/04/06 11:49:37;;;;;;;0.00;0.00;;;;;;;17.25;59.04;98322.59;7353284;19;20377;-63